createdAt,value
2019-01-11T00:03:18.722Z,6.90
2019-01-11T00:08:20.719Z,7.40
2019-01-11T00:13:22.727Z,6.70
2019-01-11T00:18:25.634Z,6.47
2019-01-11T00:23:27.626Z,6.70
2019-01-11T00:28:29.734Z,6.42
2019-01-11T00:33:31.827Z,6.50
2019-01-11T00:38:33.877Z,6.50
2019-01-11T00:43:35.941Z,6.53
2019-01-11T00:48:37.937Z,6.47
2019-01-11T00:53:39.957Z,7.45
2019-01-11T00:58:41.982Z,7.12
2019-01-11T01:03:44.252Z,7.20
2019-01-11T01:08:46.292Z,7.70
2019-01-11T01:13:48.312Z,7.90
2019-01-11T01:18:50.602Z,8.78
2019-01-11T01:23:52.795Z,10.13
2019-01-11T01:28:54.782Z,10.00
2019-01-11T01:33:56.819Z,10.75
2019-01-11T01:38:58.819Z,9.53
2019-01-11T01:44:01.142Z,8.58
2019-01-11T01:49:03.504Z,8.70
2019-01-11T01:54:46.358Z,9.08
2019-01-11T01:59:48.826Z,8.60
2019-01-11T02:04:50.897Z,9.10
2019-01-11T02:09:52.875Z,8.45
2019-01-11T02:14:55.203Z,8.23
2019-01-11T02:19:57.216Z,8.60
2019-01-11T02:24:59.369Z,8.53
2019-01-11T02:30:01.360Z,8.78
2019-01-11T02:35:44.258Z,8.35
2019-01-11T02:40:46.352Z,8.00
2019-01-11T02:45:48.382Z,8.80
2019-01-11T02:50:50.380Z,8.88
2019-01-11T02:55:52.379Z,9.35
2019-01-11T03:00:54.444Z,9.90
2019-01-11T03:11:06.470Z,9.65
2019-01-11T03:16:08.858Z,9.38
2019-01-11T03:21:10.869Z,9.63
2019-01-11T03:26:12.921Z,9.08
2019-01-11T03:31:34.517Z,9.03
2019-01-11T03:36:36.584Z,8.30
2019-01-11T03:41:58.159Z,9.48
2019-01-11T03:47:00.187Z,9.55
2019-01-11T03:52:02.300Z,9.25
2019-01-11T03:57:04.297Z,7.90
2019-01-11T04:02:06.429Z,9.43
2019-01-11T04:07:08.449Z,10.38
2019-01-11T04:12:10.499Z,10.35
2019-01-11T04:17:12.526Z,9.63
2019-01-11T04:22:34.147Z,11.48
2019-01-11T04:27:36.199Z,10.85
2019-01-11T04:32:38.478Z,10.98
2019-01-11T04:37:40.680Z,12.18
2019-01-11T04:42:42.667Z,11.75
2019-01-11T04:47:44.674Z,13.65
2019-01-11T04:52:46.821Z,13.85
2019-01-11T04:57:48.813Z,13.20
2019-01-11T05:02:50.823Z,14.30
2019-01-11T05:07:53.169Z,14.98
2019-01-11T05:23:15.293Z,15.65
2019-01-11T05:28:17.339Z,15.28
2019-01-11T05:33:19.377Z,16.30
2019-01-11T05:38:21.404Z,16.93
2019-01-11T05:43:23.770Z,17.45
2019-01-11T05:48:25.818Z,18.55
2019-01-11T05:53:27.848Z,16.77
2019-01-11T05:58:31.314Z,18.27
2019-01-11T06:03:33.333Z,19.30
2019-01-11T06:08:35.921Z,17.62
2019-01-11T06:13:38.022Z,18.82
2019-01-11T06:18:40.143Z,19.52
2019-01-11T06:23:42.198Z,19.35
2019-01-11T06:28:44.246Z,19.73
2019-01-11T06:33:46.538Z,21.17
2019-01-11T06:38:48.583Z,22.65
2019-01-11T06:43:50.904Z,24.82
2019-01-11T06:48:53.054Z,23.35
2019-01-11T06:53:55.142Z,25.55
2019-01-11T06:58:57.225Z,25.02
2019-01-11T07:03:59.501Z,24.80
2019-01-11T07:09:01.526Z,26.55
2019-01-11T07:14:03.909Z,26.40
2019-01-11T07:19:05.986Z,25.05
2019-01-11T07:24:08.095Z,26.33
2019-01-11T07:29:10.156Z,25.68
2019-01-11T07:34:12.293Z,24.67
2019-01-11T07:39:33.957Z,25.40
2019-01-11T07:44:36.452Z,24.55
2019-01-11T07:49:38.532Z,24.52
2019-01-11T07:54:40.540Z,23.60
2019-01-11T07:59:42.710Z,22.98
2019-01-11T08:04:45.374Z,24.25
2019-01-11T08:14:57.825Z,24.47
2019-01-11T08:20:00.038Z,23.60
2019-01-11T08:30:14.260Z,21.07
2019-01-11T08:35:16.615Z,22.42
2019-01-11T08:40:18.687Z,21.48
2019-01-11T08:45:20.925Z,21.48
2019-01-11T08:50:23.029Z,21.68
2019-01-11T08:55:25.197Z,21.15
2019-01-11T09:00:27.282Z,21.45
2019-01-11T09:05:29.835Z,22.27
2019-01-11T09:10:32.245Z,21.85
2019-01-11T09:15:34.294Z,20.68
2019-01-11T09:25:46.875Z,20.00
2019-01-11T09:30:50.201Z,19.27
2019-01-11T09:35:52.340Z,17.50
2019-01-11T09:40:54.547Z,18.52
2019-01-11T09:45:57.375Z,18.20
2019-01-11T09:50:59.413Z,17.42
2019-01-11T09:56:01.517Z,18.00
2019-01-11T10:01:03.941Z,18.10
2019-01-11T10:06:06.463Z,19.45
2019-01-11T10:11:08.684Z,19.05
2019-01-11T10:16:10.733Z,19.25
2019-01-11T10:21:12.919Z,19.23
2019-01-11T10:26:14.950Z,20.92
2019-01-11T10:31:17.139Z,19.30
2019-01-11T10:36:19.183Z,19.62
2019-01-11T10:41:21.276Z,21.97
2019-01-11T10:46:48.896Z,21.35
2019-01-11T10:51:47.201Z,20.82
2019-01-11T10:56:49.262Z,23.60
2019-01-11T11:01:51.302Z,22.02
2019-01-11T11:06:53.356Z,21.55
2019-01-11T11:11:55.469Z,22.15
2019-01-11T11:16:57.523Z,23.20
2019-01-11T11:21:59.635Z,23.60
2019-01-11T11:27:01.885Z,23.65
2019-01-11T11:32:04.073Z,23.98
2019-01-11T11:42:16.958Z,23.95
2019-01-11T11:47:20.513Z,23.42
2019-01-11T11:52:22.525Z,22.13
2019-01-11T11:57:24.538Z,23.40
2019-01-11T12:02:26.648Z,21.75
2019-01-11T12:07:28.744Z,22.82
2019-01-11T12:12:31.495Z,23.25
2019-01-11T12:17:36.070Z,23.25
2019-01-11T12:22:39.894Z,23.20
2019-01-11T12:27:42.651Z,22.17
2019-01-11T12:32:44.708Z,21.52
2019-01-11T12:37:46.716Z,22.95
2019-01-11T12:42:48.754Z,23.47
2019-01-11T12:47:50.774Z,21.95
2019-01-11T12:52:52.775Z,23.42
2019-01-11T12:57:54.817Z,22.50
2019-01-11T13:02:57.012Z,23.00
2019-01-11T13:07:59.010Z,24.75
2019-01-11T13:13:01.102Z,24.23
2019-01-11T13:18:03.247Z,23.07
2019-01-11T13:23:06.460Z,24.63
2019-01-11T13:28:09.534Z,23.50
2019-01-11T13:33:11.688Z,24.92
2019-01-11T13:38:13.718Z,24.87
2019-01-11T13:43:15.767Z,24.07
2019-01-11T13:48:17.831Z,23.02
2019-01-11T13:53:20.053Z,24.20
2019-01-11T13:58:22.158Z,24.57
2019-01-11T14:03:24.224Z,24.10
2019-01-11T14:08:26.351Z,23.73
2019-01-11T14:13:28.410Z,25.05
2019-01-11T14:18:30.462Z,24.25
2019-01-11T14:23:32.513Z,26.57
2019-01-11T14:28:34.581Z,27.07
2019-01-11T14:33:36.903Z,26.95
2019-01-11T14:38:38.897Z,28.35
2019-01-11T14:43:40.950Z,25.90
2019-01-11T14:48:43.030Z,26.73
2019-01-11T14:53:45.086Z,27.15
2019-01-11T14:58:47.131Z,26.50
2019-01-11T15:03:49.168Z,28.57
2019-01-11T15:08:51.250Z,28.00
2019-01-11T15:13:53.231Z,28.30
2019-01-11T15:18:55.311Z,29.25
2019-01-11T15:23:57.316Z,26.77
2019-01-11T15:28:59.342Z,27.58
2019-01-11T15:34:01.541Z,26.42
2019-01-11T15:39:26.872Z,27.27
2019-01-11T15:44:28.830Z,27.32
2019-01-11T15:49:30.910Z,29.10
2019-01-11T15:54:32.989Z,28.47
2019-01-11T16:00:18.797Z,30.85
2019-01-11T16:05:20.866Z,26.33
2019-01-11T16:10:23.128Z,25.68
2019-01-11T16:16:04.060Z,27.73
2019-01-11T16:21:06.100Z,27.58
2019-01-11T16:26:08.180Z,28.52
2019-01-11T16:31:10.215Z,28.42
2019-01-11T16:36:12.244Z,29.07
2019-01-11T16:41:14.259Z,28.52
2019-01-11T16:46:16.316Z,28.55
2019-01-11T16:51:18.314Z,28.32
2019-01-11T16:56:27.855Z,30.15
2019-01-11T17:01:29.858Z,29.15
2019-01-11T17:06:32.240Z,26.20
2019-01-11T17:11:34.482Z,28.85
2019-01-11T17:16:36.601Z,30.23
2019-01-11T17:21:38.718Z,29.90
2019-01-11T17:26:40.847Z,29.57
2019-01-11T17:31:43.005Z,32.00
2019-01-11T17:36:45.449Z,27.07
2019-01-11T17:41:48.160Z,28.10
2019-01-11T17:46:50.204Z,25.88
2019-01-11T17:51:52.407Z,28.32
2019-01-11T17:56:54.609Z,26.73
2019-01-11T18:01:56.888Z,26.33
2019-01-11T18:06:59.260Z,26.97
2019-01-11T18:12:01.421Z,28.60
2019-01-11T18:17:03.502Z,27.37
2019-01-11T18:22:05.569Z,27.27
2019-01-11T18:27:07.669Z,27.52
2019-01-11T18:32:09.727Z,26.75
2019-01-11T18:37:11.803Z,28.62
2019-01-11T18:42:13.829Z,27.73
2019-01-11T18:47:15.884Z,27.15
2019-01-11T18:52:17.978Z,25.02
2019-01-11T18:57:20.128Z,27.62
2019-01-11T19:02:22.238Z,28.32
2019-01-11T19:07:24.278Z,26.45
2019-01-11T19:12:26.594Z,26.05
2019-01-11T19:17:30.006Z,24.15
2019-01-11T19:22:32.650Z,27.65
2019-01-11T19:27:34.734Z,28.27
2019-01-11T19:32:36.827Z,27.75
2019-01-11T19:37:58.330Z,27.82
2019-01-11T19:43:00.388Z,27.98
2019-01-11T19:48:03.082Z,26.93
2019-01-11T19:53:05.260Z,27.93
2019-01-11T19:58:07.309Z,25.85
2019-01-11T20:03:09.385Z,27.25
2019-01-11T20:08:11.496Z,25.43
2019-01-11T20:13:13.803Z,27.25
2019-01-11T20:18:15.899Z,26.15
2019-01-11T20:23:17.945Z,26.55
2019-01-11T20:28:20.236Z,28.57
2019-01-11T20:33:22.768Z,27.65
2019-01-11T20:38:24.938Z,28.05
2019-01-11T20:43:27.022Z,28.80
2019-01-11T20:48:29.191Z,26.45
2019-01-11T20:53:31.347Z,28.65
2019-01-11T20:58:33.471Z,26.87
2019-01-11T21:03:35.502Z,25.35
2019-01-11T21:08:37.625Z,24.57
2019-01-11T21:13:39.700Z,26.40
2019-01-11T21:18:42.329Z,25.97
2019-01-11T21:23:48.613Z,24.25
2019-01-11T21:28:48.700Z,26.65
2019-01-11T21:33:50.809Z,23.55
2019-01-11T21:38:52.842Z,24.55
2019-01-11T21:43:55.565Z,26.05
2019-01-11T21:48:57.641Z,26.10
2019-01-11T21:54:00.157Z,23.83
2019-01-11T21:59:03.351Z,26.10
2019-01-11T22:04:05.448Z,38.37
2019-01-11T22:09:08.187Z,22.98
2019-01-11T22:14:10.283Z,22.67
2019-01-11T22:19:12.845Z,23.85
2019-01-11T22:24:14.967Z,25.08
2019-01-11T22:29:17.113Z,25.08
2019-01-11T22:34:19.259Z,25.08
2019-01-11T22:39:21.322Z,25.57
2019-01-11T22:44:23.511Z,23.85
2019-01-11T22:49:26.112Z,25.48
2019-01-11T22:54:28.238Z,23.45
2019-01-11T22:59:30.288Z,25.27
2019-01-11T23:04:32.331Z,24.63
2019-01-11T23:09:59.493Z,25.30
2019-01-11T23:15:01.539Z,25.52
2019-01-11T23:20:04.825Z,25.70
2019-01-11T23:25:07.235Z,23.80
2019-01-11T23:30:28.822Z,24.63
2019-01-11T23:35:30.890Z,24.80
2019-01-11T23:40:32.944Z,24.37
2019-01-11T23:45:35.466Z,23.70
2019-01-11T23:50:37.519Z,23.87
2019-01-11T23:55:39.618Z,24.85
